JAT990 SCEL-SAME
Flight info
| Callsign | JAT990 |
|---|---|
| Flight time | 0h 30m |
| Altitude | 23000 |
| Route | NEBEG5D NEBEG NEBEG2Q |
| Aircraft | A320/M-SDE3FGHIRWY/LB1 |
Departure
| Time | 2026-05-06 18:16 |
|---|---|
| Airport | Comodoro Arturo Merino Benítez International Airport (SCEL) |
Arrival
| Time | 2026-05-06 18:46 |
|---|---|
| Airport | Governor Francisco Gabrielli International Airport (SAME) |
| Time | Latitude | Longitude | Altitude | Speed | Heading |
|---|---|---|---|---|---|
| 2026-05-06 17:36 | -33.39745 | -70.79828 | 1565 ft | 0 kts | 358° |
| 2026-05-06 17:48 | -33.39746 | -70.79828 | 1565 ft | 0 kts | 358° |
| 2026-05-06 18:02 | -33.39770 | -70.79826 | 1565 ft | 4 kts | 351° |
| 2026-05-06 18:03 | -33.39796 | -70.79819 | 1565 ft | 4 kts | 338° |
| 2026-05-06 18:03 | -33.39818 | -70.79803 | 1565 ft | 4 kts | 301° |
| 2026-05-06 18:03 | -33.39822 | -70.79786 | 1565 ft | 1 kts | 267° |
| 2026-05-06 18:03 | -33.39822 | -70.79784 | 1565 ft | 1 kts | 267° |
| 2026-05-06 18:05 | -33.39822 | -70.79783 | 1565 ft | 0 kts | 267° |
| 2026-05-06 18:08 | -33.39822 | -70.79784 | 1565 ft | 0 kts | 267° |
| 2026-05-06 18:08 | -33.39823 | -70.79790 | 1565 ft | 1 kts | 267° |
| 2026-05-06 18:09 | -33.39823 | -70.79807 | 1565 ft | 3 kts | 267° |
| 2026-05-06 18:09 | -33.39824 | -70.79833 | 1565 ft | 4 kts | 267° |
| 2026-05-06 18:09 | -33.39832 | -70.79863 | 1565 ft | 4 kts | 246° |
| 2026-05-06 18:09 | -33.39842 | -70.79896 | 1565 ft | 4 kts | 262° |
| 2026-05-06 18:10 | -33.39843 | -70.79908 | 1565 ft | 0 kts | 263° |
| 2026-05-06 18:10 | -33.39846 | -70.79913 | 1565 ft | 2 kts | 236° |
| 2026-05-06 18:10 | -33.39869 | -70.79921 | 1565 ft | 4 kts | 183° |
| 2026-05-06 18:10 | -33.39904 | -70.79917 | 1565 ft | 6 kts | 174° |
| 2026-05-06 18:11 | -33.39950 | -70.79913 | 1565 ft | 7 kts | 176° |
| 2026-05-06 18:11 | -33.40007 | -70.79909 | 1565 ft | 9 kts | 176° |
| 2026-05-06 18:11 | -33.40077 | -70.79903 | 1565 ft | 11 kts | 176° |
| 2026-05-06 18:11 | -33.40161 | -70.79897 | 1565 ft | 13 kts | 176° |
| 2026-05-06 18:12 | -33.40257 | -70.79890 | 1565 ft | 15 kts | 176° |
| 2026-05-06 18:12 | -33.40362 | -70.79882 | 1565 ft | 14 kts | 176° |
| 2026-05-06 18:12 | -33.40468 | -70.79874 | 1565 ft | 16 kts | 176° |
| 2026-05-06 18:12 | -33.40586 | -70.79866 | 1565 ft | 17 kts | 176° |
| 2026-05-06 18:13 | -33.40710 | -70.79859 | 1565 ft | 18 kts | 177° |
| 2026-05-06 18:13 | -33.40809 | -70.79885 | 1565 ft | 12 kts | 237° |
| 2026-05-06 18:13 | -33.40788 | -70.79955 | 1565 ft | 9 kts | 338° |
| 2026-05-06 18:13 | -33.40754 | -70.79963 | 1565 ft | 6 kts | 355° |
| 2026-05-06 18:14 | -33.40671 | -70.79967 | 1566 ft | 14 kts | 357° |
| 2026-05-06 18:14 | -33.40595 | -70.80002 | 1567 ft | 12 kts | 290° |
| 2026-05-06 18:14 | -33.40592 | -70.80092 | 1571 ft | 9 kts | 270° |
| 2026-05-06 18:14 | -33.40594 | -70.80163 | 1574 ft | 13 kts | 268° |
| 2026-05-06 18:15 | -33.40419 | -70.80200 | 1574 ft | 58 kts | 358° |
| 2026-05-06 18:15 | -33.39789 | -70.80231 | 1572 ft | 120 kts | 357° |
| 2026-05-06 18:15 | -33.38792 | -70.80291 | 1575 ft | 165 kts | 357° |
| 2026-05-06 18:15 | -33.37548 | -70.80380 | 1848 ft | 184 kts | 1° |
| 2026-05-06 18:16 | -33.36267 | -70.80437 | 2518 ft | 184 kts | 357° |
| 2026-05-06 18:16 | -33.34972 | -70.80450 | 3056 ft | 192 kts | 358° |
| 2026-05-06 18:16 | -33.33565 | -70.80505 | 3318 ft | 211 kts | 358° |
| 2026-05-06 18:16 | -33.32015 | -70.80561 | 3654 ft | 232 kts | 358° |
| 2026-05-06 18:17 | -33.30342 | -70.80591 | 4157 ft | 250 kts | 4° |
| 2026-05-06 18:17 | -33.28663 | -70.79965 | 5000 ft | 260 kts | 28° |
| 2026-05-06 18:17 | -33.27375 | -70.78391 | 5863 ft | 276 kts | 57° |
| 2026-05-06 18:17 | -33.26924 | -70.76114 | 6662 ft | 293 kts | 91° |
| 2026-05-06 18:18 | -33.27562 | -70.73792 | 7399 ft | 303 kts | 125° |
| 2026-05-06 18:18 | -33.29133 | -70.72150 | 8151 ft | 304 kts | 157° |
| 2026-05-06 18:18 | -33.31107 | -70.71248 | 8963 ft | 304 kts | 167° |
| 2026-05-06 18:18 | -33.33165 | -70.70618 | 9830 ft | 307 kts | 172° |
| 2026-05-06 18:19 | -33.35285 | -70.70068 | 10408 ft | 321 kts | 172° |
| 2026-05-06 18:19 | -33.37546 | -70.69486 | 10622 ft | 344 kts | 171° |
| 2026-05-06 18:19 | -33.39944 | -70.68822 | 11003 ft | 360 kts | 170° |
| 2026-05-06 18:19 | -33.42398 | -70.68078 | 11687 ft | 366 kts | 169° |
| 2026-05-06 18:20 | -33.44836 | -70.67273 | 12380 ft | 370 kts | 166° |
| 2026-05-06 18:20 | -33.47227 | -70.66048 | 13084 ft | 378 kts | 157° |
| 2026-05-06 18:20 | -33.49593 | -70.64642 | 13806 ft | 381 kts | 158° |
| 2026-05-06 18:20 | -33.51986 | -70.63243 | 14453 ft | 385 kts | 158° |
| 2026-05-06 18:21 | -33.54408 | -70.61839 | 15113 ft | 388 kts | 158° |
| 2026-05-06 18:21 | -33.56854 | -70.60427 | 15795 ft | 392 kts | 159° |
| 2026-05-06 18:21 | -33.59331 | -70.59001 | 16436 ft | 397 kts | 159° |
| 2026-05-06 18:21 | -33.61833 | -70.57561 | 17029 ft | 401 kts | 159° |
| 2026-05-06 18:22 | -33.64357 | -70.56104 | 17670 ft | 404 kts | 159° |
| 2026-05-06 18:22 | -33.66899 | -70.54630 | 18255 ft | 408 kts | 159° |
| 2026-05-06 18:22 | -33.69462 | -70.53142 | 18773 ft | 412 kts | 159° |
| 2026-05-06 18:22 | -33.72062 | -70.51633 | 19223 ft | 417 kts | 160° |
| 2026-05-06 18:23 | -33.74672 | -70.50078 | 19731 ft | 423 kts | 155° |
| 2026-05-06 18:23 | -33.77089 | -70.47980 | 20302 ft | 436 kts | 141° |
| 2026-05-06 18:23 | -33.79107 | -70.45210 | 20839 ft | 446 kts | 127° |
| 2026-05-06 18:23 | -33.80580 | -70.41902 | 21269 ft | 455 kts | 112° |
| 2026-05-06 18:24 | -33.81386 | -70.38203 | 21738 ft | 460 kts | 97° |
| 2026-05-06 18:24 | -33.81477 | -70.34354 | 22197 ft | 463 kts | 86° |
| 2026-05-06 18:24 | -33.81353 | -70.30472 | 22592 ft | 466 kts | 86° |
| 2026-05-06 18:24 | -33.81266 | -70.27887 | 22851 ft | 469 kts | 86° |
| 2026-05-06 18:25 | -33.81133 | -70.23950 | 23049 ft | 473 kts | 86° |
| 2026-05-06 18:25 | -33.80956 | -70.18635 | 23101 ft | 487 kts | 86° |
| 2026-05-06 18:25 | -33.80819 | -70.14535 | 23030 ft | 493 kts | 86° |
| 2026-05-06 18:25 | -33.80726 | -70.11756 | 23033 ft | 495 kts | 86° |
| 2026-05-06 18:26 | -33.80545 | -70.06261 | 23003 ft | 498 kts | 86° |
| 2026-05-06 18:26 | -33.80411 | -70.02109 | 22990 ft | 496 kts | 86° |
| 2026-05-06 18:26 | -33.80324 | -69.99345 | 22997 ft | 495 kts | 86° |
| 2026-05-06 18:26 | -33.80143 | -69.93832 | 22991 ft | 495 kts | 86° |
| 2026-05-06 18:27 | -33.80075 | -69.91086 | 22966 ft | 495 kts | 89° |
| 2026-05-06 18:27 | -33.80306 | -69.86961 | 22959 ft | 497 kts | 97° |
| 2026-05-06 18:27 | -33.80724 | -69.82815 | 22978 ft | 501 kts | 97° |
| 2026-05-06 18:27 | -33.81142 | -69.78661 | 22934 ft | 501 kts | 97° |
| 2026-05-06 18:28 | -33.81558 | -69.74503 | 22935 ft | 500 kts | 97° |
| 2026-05-06 18:28 | -33.81974 | -69.70338 | 22929 ft | 501 kts | 97° |
| 2026-05-06 18:28 | -33.82389 | -69.66184 | 22871 ft | 501 kts | 97° |
| 2026-05-06 18:28 | -33.82799 | -69.62024 | 22882 ft | 502 kts | 96° |
| 2026-05-06 18:29 | -33.83205 | -69.57855 | 22880 ft | 501 kts | 96° |
| 2026-05-06 18:29 | -33.83607 | -69.53693 | 22884 ft | 501 kts | 96° |
| 2026-05-06 18:29 | -33.84006 | -69.49539 | 22806 ft | 497 kts | 97° |
| 2026-05-06 18:29 | -33.84402 | -69.45416 | 22832 ft | 497 kts | 97° |
| 2026-05-06 18:30 | -33.84801 | -69.41289 | 22841 ft | 497 kts | 97° |
| 2026-05-06 18:30 | -33.85202 | -69.37171 | 22784 ft | 496 kts | 97° |
| 2026-05-06 18:30 | -33.85602 | -69.33045 | 22783 ft | 495 kts | 96° |
| 2026-05-06 18:30 | -33.85998 | -69.28923 | 22784 ft | 495 kts | 96° |
| 2026-05-06 18:31 | -33.86392 | -69.24804 | 22741 ft | 495 kts | 96° |
| 2026-05-06 18:31 | -33.86783 | -69.20699 | 22730 ft | 495 kts | 96° |
| 2026-05-06 18:31 | -33.87168 | -69.16644 | 22709 ft | 491 kts | 97° |
| 2026-05-06 18:31 | -33.87551 | -69.12563 | 22701 ft | 490 kts | 97° |
| 2026-05-06 18:32 | -33.87934 | -69.08439 | 22709 ft | 489 kts | 97° |
| 2026-05-06 18:32 | -33.88305 | -69.04427 | 22712 ft | 488 kts | 97° |
| 2026-05-06 18:32 | -33.88676 | -69.00385 | 22159 ft | 485 kts | 96° |
| 2026-05-06 18:32 | -33.88578 | -68.96334 | 21417 ft | 480 kts | 77° |
| 2026-05-06 18:33 | -33.87546 | -68.92593 | 20847 ft | 466 kts | 58° |
| 2026-05-06 18:33 | -33.85693 | -68.89504 | 20299 ft | 447 kts | 39° |
| 2026-05-06 18:33 | -33.83277 | -68.87307 | 19786 ft | 427 kts | 21° |
| 2026-05-06 18:33 | -33.80568 | -68.86055 | 19291 ft | 409 kts | 6° |
| 2026-05-06 18:34 | -33.77797 | -68.85637 | 18771 ft | 397 kts | 358° |
| 2026-05-06 18:34 | -33.75065 | -68.85388 | 18292 ft | 392 kts | 358° |
| 2026-05-06 18:34 | -33.72351 | -68.85142 | 17752 ft | 390 kts | 358° |
| 2026-05-06 18:34 | -33.69656 | -68.84900 | 17224 ft | 385 kts | 359° |
| 2026-05-06 18:35 | -33.67000 | -68.84660 | 16704 ft | 381 kts | 359° |
| 2026-05-06 18:35 | -33.64368 | -68.84421 | 16187 ft | 377 kts | 359° |
| 2026-05-06 18:35 | -33.61765 | -68.84184 | 15663 ft | 373 kts | 0° |
| 2026-05-06 18:35 | -33.59194 | -68.83951 | 15146 ft | 369 kts | 0° |
| 2026-05-06 18:36 | -33.56636 | -68.83720 | 14538 ft | 369 kts | 1° |
| 2026-05-06 18:36 | -33.54083 | -68.83489 | 14016 ft | 366 kts | 1° |
| 2026-05-06 18:36 | -33.51546 | -68.83261 | 13486 ft | 364 kts | 1° |
| 2026-05-06 18:36 | -33.49023 | -68.83037 | 12913 ft | 362 kts | 1° |
| 2026-05-06 18:37 | -33.46530 | -68.82813 | 12383 ft | 358 kts | 2° |
| 2026-05-06 18:37 | -33.44059 | -68.82585 | 11868 ft | 354 kts | 2° |
| 2026-05-06 18:37 | -33.41648 | -68.82362 | 11344 ft | 351 kts | 2° |
| 2026-05-06 18:37 | -33.39221 | -68.82139 | 10831 ft | 348 kts | 2° |
| 2026-05-06 18:38 | -33.36816 | -68.81920 | 10311 ft | 345 kts | 0° |
| 2026-05-06 18:38 | -33.34464 | -68.81708 | 10108 ft | 332 kts | 0° |
| 2026-05-06 18:38 | -33.32205 | -68.81503 | 9828 ft | 318 kts | 0° |
| 2026-05-06 18:38 | -33.30042 | -68.81305 | 9520 ft | 309 kts | 0° |
| 2026-05-06 18:39 | -33.27916 | -68.81114 | 9203 ft | 304 kts | 0° |
| 2026-05-06 18:39 | -33.25822 | -68.80925 | 8893 ft | 299 kts | 0° |
| 2026-05-06 18:39 | -33.23761 | -68.80741 | 8592 ft | 295 kts | 0° |
| 2026-05-06 18:40 | -33.19723 | -68.80379 | 7994 ft | 287 kts | 0° |
| 2026-05-06 18:40 | -33.17739 | -68.80199 | 7701 ft | 284 kts | 0° |
| 2026-05-06 18:40 | -33.15776 | -68.80022 | 7410 ft | 282 kts | 0° |
| 2026-05-06 18:40 | -33.13828 | -68.79847 | 7117 ft | 279 kts | 0° |
| 2026-05-06 18:41 | -33.11925 | -68.79685 | 6817 ft | 275 kts | 357° |
| 2026-05-06 18:41 | -33.10008 | -68.79618 | 6523 ft | 269 kts | 353° |
| 2026-05-06 18:41 | -33.08183 | -68.79640 | 6244 ft | 256 kts | 353° |
| 2026-05-06 18:41 | -33.06460 | -68.79633 | 5972 ft | 245 kts | 354° |
| 2026-05-06 18:42 | -33.04803 | -68.79607 | 5830 ft | 228 kts | 354° |
| 2026-05-06 18:42 | -33.03260 | -68.79582 | 5812 ft | 217 kts | 354° |
| 2026-05-06 18:42 | -33.01772 | -68.79562 | 5578 ft | 212 kts | 353° |
| 2026-05-06 18:42 | -33.00303 | -68.79542 | 5328 ft | 210 kts | 353° |
| 2026-05-06 18:43 | -32.98842 | -68.79521 | 5071 ft | 210 kts | 353° |
| 2026-05-06 18:43 | -32.97389 | -68.79499 | 4811 ft | 209 kts | 353° |
| 2026-05-06 18:43 | -32.95940 | -68.79478 | 4551 ft | 207 kts | 353° |
| 2026-05-06 18:43 | -32.94510 | -68.79455 | 4287 ft | 202 kts | 354° |
| 2026-05-06 18:44 | -32.93157 | -68.79432 | 4055 ft | 187 kts | 353° |
| 2026-05-06 18:44 | -32.91930 | -68.79411 | 3833 ft | 167 kts | 353° |
| 2026-05-06 18:44 | -32.90835 | -68.79394 | 3592 ft | 151 kts | 352° |
| 2026-05-06 18:44 | -32.89816 | -68.79383 | 3445 ft | 144 kts | 352° |
| 2026-05-06 18:45 | -32.88829 | -68.79383 | 3244 ft | 141 kts | 353° |
| 2026-05-06 18:45 | -32.87851 | -68.79362 | 3084 ft | 138 kts | 352° |
| 2026-05-06 18:45 | -32.86877 | -68.79348 | 2870 ft | 143 kts | 352° |
| 2026-05-06 18:45 | -32.85883 | -68.79316 | 2738 ft | 142 kts | 352° |
| 2026-05-06 18:46 | -32.84893 | -68.79326 | 2558 ft | 139 kts | 357° |
| 2026-05-06 18:46 | -32.83944 | -68.79312 | 2427 ft | 137 kts | 355° |
| 2026-05-06 18:46 | -32.83126 | -68.79297 | 2412 ft | 93 kts | 2° |
| 2026-05-06 18:46 | -32.82649 | -68.79283 | 2414 ft | 37 kts | 2° |
| 2026-05-06 18:47 | -32.82547 | -68.79347 | 2414 ft | 15 kts | 277° |
| 2026-05-06 18:47 | -32.82592 | -68.79439 | 2413 ft | 12 kts | 221° |
| 2026-05-06 18:47 | -32.82650 | -68.79517 | 2412 ft | 13 kts | 240° |
| 2026-05-06 18:47 | -32.82675 | -68.79605 | 2412 ft | 10 kts | 265° |
| 2026-05-06 18:48 | -32.82673 | -68.79685 | 2413 ft | 9 kts | 263° |
| 2026-05-06 18:48 | -32.82719 | -68.79711 | 2415 ft | 6 kts | 220° |
| 2026-05-06 18:48 | -32.82723 | -68.79755 | 2415 ft | 5 kts | 272° |
| 2026-05-06 18:48 | -32.82722 | -68.79778 | 2415 ft | 0 kts | 271° |